Time;durP1;ratioP1;P1;durP2;ratioP2;P2;SDS_P1;SDS_P2;PMS_P1;PMS_P2;Temp;Humidity;BMP_temperature;BMP_pressure;BME280_temperature;BME280_humidity;BME280_pressure;Samples;Min_cycle;Max_cycle;Signal;HPM_P1;HPM_P2
2024/02/22 00:00:56;;;;;;;30.40;20.27;;;;;22.40;98927.00;;;;2052878;28;20281;-68
2024/02/22 00:01:56;;;;;;;26.93;18.53;;;;;22.40;98913.00;;;;2064231;28;20718;-68
2024/02/22 00:02:56;;;;;;;28.00;19.63;;;;;22.40;98918.00;;;;2063623;28;20215;-68
2024/02/22 00:03:57;;;;;;;28.13;20.00;;;;;22.40;98914.00;;;;2064320;28;20211;-68
2024/02/22 00:04:57;;;;;;;26.33;17.10;;;;;22.40;98909.00;;;;2064192;28;20246;-68
2024/02/22 00:05:57;;;;;;;29.60;18.33;;;;;22.30;98912.00;;;;2053606;28;20218;-68
2024/02/22 00:06:58;;;;;;;29.00;19.60;;;;;22.30;98910.00;;;;2064313;28;20655;-68
2024/02/22 00:07:58;;;;;;;27.83;18.03;;;;;22.30;98908.00;;;;2062575;28;20853;-68
2024/02/22 00:08:58;;;;;;;27.03;18.43;;;;;22.30;98904.00;;;;2064227;28;20223;-68
2024/02/22 00:10:00;;;;;;;24.90;17.47;;;;;22.30;98905.00;;;;2063555;28;20218;-68
2024/02/22 00:11:01;;;;;;;26.63;17.88;;;;;22.30;98907.00;;;;2054361;28;20625;-68
2024/02/22 00:12:01;;;;;;;26.80;17.40;;;;;22.30;98898.00;;;;2064138;28;20219;-68
2024/02/22 00:13:01;;;;;;;24.80;17.07;;;;;22.30;98900.00;;;;2063383;28;20218;-68
2024/02/22 00:14:02;;;;;;;24.70;16.73;;;;;22.30;98902.00;;;;2064192;28;20214;-68
2024/02/22 00:15:02;;;;;;;23.30;17.53;;;;;22.30;98893.00;;;;2061968;28;20718;-68
2024/02/22 00:16:05;;;;;;;26.47;17.60;;;;;22.30;98890.00;;;;2050245;28;20679;-68
2024/02/22 00:17:06;;;;;;;26.67;18.33;;;;;22.30;98895.00;;;;2063977;28;20227;-68
2024/02/22 00:18:06;;;;;;;27.23;18.00;;;;;22.30;98868.00;;;;2062816;28;20222;-68
2024/02/22 00:19:06;;;;;;;26.83;16.53;;;;;22.30;98890.00;;;;2064134;28;20207;-68
2024/02/22 00:20:07;;;;;;;22.23;15.80;;;;;22.30;98887.00;;;;2063287;28;20285;-68
2024/02/22 00:21:08;;;;;;;22.20;15.63;;;;;22.30;98885.00;;;;2053568;28;20230;-68
2024/02/22 00:22:10;;;;;;;24.58;17.23;;;;;22.30;98888.00;;;;2061994;28;20262;-68
2024/02/22 00:23:10;;;;;;;25.83;17.00;;;;;22.30;98881.00;;;;2061716;28;20211;-70
2024/02/22 00:24:10;;;;;;;24.97;15.70;;;;;22.30;98882.00;;;;2063061;28;20635;-71
2024/02/22 00:25:11;;;;;;;23.40;15.27;;;;;22.30;98879.00;;;;2060873;28;20215;-72
2024/02/22 00:26:14;;;;;;;22.50;15.17;;;;;22.30;98823.00;;;;2049086;28;20235;-68
2024/02/22 00:27:14;;;;;;;23.00;15.30;;;;;22.30;98894.00;;;;2055133;28;20662;-69
2024/02/22 00:28:16;;;;;;;22.50;15.03;;;;;22.30;98886.00;;;;2063350;28;20223;-68
2024/02/22 00:29:17;;;;;;;24.45;15.80;;;;;22.30;98878.00;;;;2063416;28;20353;-68
2024/02/22 00:30:17;;;;;;;24.13;15.50;;;;;22.20;98873.00;;;;2053029;28;20836;-68
2024/02/22 00:31:18;;;;;;;24.63;15.73;;;;;22.20;98871.00;;;;2063534;28;20616;-68
2024/02/22 00:32:18;;;;;;;24.43;15.20;;;;;22.20;98871.00;;;;2062645;28;20238;-68
2024/02/22 00:33:18;;;;;;;20.97;14.63;;;;;22.20;98878.00;;;;2064084;28;20218;-68
2024/02/22 00:34:18;;;;;;;25.17;15.67;;;;;22.30;98873.00;;;;2063423;28;20698;-69
2024/02/22 00:35:19;;;;;;;20.63;13.87;;;;;22.20;98876.00;;;;2053603;28;20237;-68
2024/02/22 00:36:19;;;;;;;20.80;13.40;;;;;22.20;98873.00;;;;2054153;28;20223;-68
2024/02/22 00:37:20;;;;;;;22.20;14.40;;;;;22.20;98873.00;;;;2055339;28;20563;-68
2024/02/22 00:38:20;;;;;;;21.17;14.30;;;;;22.20;98875.00;;;;2054182;28;20695;-68
2024/02/22 00:39:20;;;;;;;18.90;13.67;;;;;22.20;98873.00;;;;2053719;28;20778;-68
2024/02/22 00:40:20;;;;;;;23.23;15.00;;;;;22.20;98874.00;;;;2045013;28;20724;-68
2024/02/22 00:41:21;;;;;;;20.50;14.03;;;;;22.20;98868.00;;;;2063017;28;20714;-68
2024/02/22 00:42:21;;;;;;;22.60;14.90;;;;;22.20;98867.00;;;;2063895;28;20713;-68
2024/02/22 00:43:22;;;;;;;21.50;14.50;;;;;22.20;98863.00;;;;2054610;28;20700;-68
2024/02/22 00:44:22;;;;;;;18.73;13.73;;;;;22.20;98859.00;;;;2054747;28;20220;-68
2024/02/22 00:45:22;;;;;;;20.13;14.00;;;;;22.20;98862.00;;;;2053901;28;20226;-68
2024/02/22 00:46:22;;;;;;;19.20;14.53;;;;;22.20;98860.00;;;;2063056;28;20231;-68
2024/02/22 00:47:23;;;;;;;21.00;13.60;;;;;22.20;98855.00;;;;2063706;28;20217;-68
2024/02/22 00:48:23;;;;;;;19.13;13.33;;;;;22.20;98862.00;;;;2061846;28;20471;-68
2024/02/22 00:49:24;;;;;;;18.60;12.50;;;;;22.20;98860.00;;;;2063860;28;20276;-68
2024/02/22 00:50:24;;;;;;;19.07;12.60;;;;;22.20;98861.00;;;;2053863;28;20219;-68
2024/02/22 00:51:24;;;;;;;19.83;12.83;;;;;22.20;98849.00;;;;2063175;28;20756;-68
2024/02/22 00:52:25;;;;;;;18.20;12.47;;;;;22.20;98838.00;;;;2063690;28;20227;-68
2024/02/22 00:53:25;;;;;;;17.50;12.43;;;;;22.20;98718.00;;;;2054368;28;20208;-68
2024/02/22 00:54:25;;;;;;;22.47;13.30;;;;;22.20;98601.00;;;;2047368;29;20223;-68
2024/02/22 00:55:26;;;;;;;20.07;12.73;;;;;22.20;98841.00;;;;2044701;28;20215;-68
2024/02/22 00:56:26;;;;;;;19.33;12.50;;;;;22.20;98837.00;;;;2063776;28;20671;-68
2024/02/22 00:57:26;;;;;;;19.40;12.60;;;;;22.20;98833.00;;;;2063513;28;20675;-68
2024/02/22 00:58:27;;;;;;;15.40;10.97;;;;;22.10;98837.00;;;;2057280;28;20306;-68
2024/02/22 00:59:33;;;;;;;17.60;11.07;;;;;22.10;98832.00;;;;2063089;28;20601;-68
2024/02/22 01:00:34;;;;;;;18.45;12.45;;;;;22.10;98832.00;;;;2045615;28;20310;-68
2024/02/22 01:01:34;;;;;;;16.87;11.60;;;;;22.10;98840.00;;;;2063857;28;20560;-68
2024/02/22 01:02:34;;;;;;;17.50;11.33;;;;;22.10;98786.00;;;;2063348;28;20630;-68
2024/02/22 01:03:35;;;;;;;16.17;11.43;;;;;22.10;98732.00;;;;2063926;28;20215;-68
2024/02/22 01:04:36;;;;;;;19.80;11.90;;;;;22.10;98833.00;;;;2063787;28;20215;-68
2024/02/22 01:05:36;;;;;;;18.92;11.05;;;;;22.10;98831.00;;;;2052482;28;20222;-68
2024/02/22 01:06:36;;;;;;;16.87;11.13;;;;;22.10;98834.00;;;;2063016;28;20536;-68
2024/02/22 01:07:37;;;;;;;17.47;12.67;;;;;22.10;98832.00;;;;2061918;28;20215;-68
2024/02/22 01:08:37;;;;;;;15.80;11.43;;;;;22.10;98848.00;;;;2063173;28;20585;-68
2024/02/22 01:09:37;;;;;;;16.40;11.63;;;;;22.10;98823.00;;;;2062926;28;20742;-68
2024/02/22 01:10:38;;;;;;;18.70;11.40;;;;;22.10;98825.00;;;;2046270;28;20676;-68
2024/02/22 01:11:38;;;;;;;16.80;11.70;;;;;22.10;98811.00;;;;2063783;28;20769;-68
2024/02/22 01:12:38;;;;;;;15.40;10.33;;;;;22.10;98823.00;;;;2062270;28;20215;-68
2024/02/22 01:13:39;;;;;;;18.37;12.17;;;;;22.10;98813.00;;;;2063739;28;20211;-68
2024/02/22 01:14:39;;;;;;;18.13;10.90;;;;;22.10;98814.00;;;;2062853;28;20274;-68
2024/02/22 01:15:40;;;;;;;16.30;11.00;;;;;22.10;98816.00;;;;2053802;28;20223;-68
2024/02/22 01:16:40;;;;;;;14.57;9.90;;;;;22.10;98807.00;;;;2063560;28;20269;-68
2024/02/22 01:17:41;;;;;;;16.33;10.73;;;;;22.10;98808.00;;;;2062387;28;20631;-72
2024/02/22 01:18:41;;;;;;;16.43;10.70;;;;;22.10;98810.00;;;;2062977;28;20574;-69
2024/02/22 01:19:42;;;;;;;17.30;11.17;;;;;22.10;98815.00;;;;2062615;28;20577;-68
2024/02/22 01:20:42;;;;;;;15.57;11.03;;;;;22.10;98810.00;;;;2053615;28;20593;-69
2024/02/22 01:21:43;;;;;;;15.00;10.40;;;;;22.10;98807.00;;;;2062741;28;20532;-69
2024/02/22 01:22:44;;;;;;;14.90;9.53;;;;;22.10;98803.00;;;;2056852;28;20216;-68
2024/02/22 01:23:44;;;;;;;14.83;10.23;;;;;22.00;98807.00;;;;2063664;28;20469;-69
2024/02/22 01:24:44;;;;;;;14.63;10.50;;;;;22.10;98794.00;;;;2058865;28;20286;-69
2024/02/22 01:25:44;;;;;;;14.50;9.73;;;;;22.10;98794.00;;;;2050863;28;20227;-69
2024/02/22 01:26:45;;;;;;;14.90;10.40;;;;;22.00;98795.00;;;;2062459;28;20218;-68
2024/02/22 01:27:45;;;;;;;12.30;9.00;;;;;22.10;98797.00;;;;2061688;28;20206;-68
2024/02/22 01:28:46;;;;;;;14.00;9.80;;;;;22.00;98785.00;;;;2061393;28;20222;-68
2024/02/22 01:29:46;;;;;;;13.50;9.03;;;;;22.10;98801.00;;;;2061943;28;20246;-69
2024/02/22 01:30:46;;;;;;;13.37;9.00;;;;;22.10;98795.00;;;;2053602;28;20238;-68
2024/02/22 01:31:46;;;;;;;13.87;9.43;;;;;22.00;98788.00;;;;2060704;28;20246;-69
2024/02/22 01:32:47;;;;;;;15.10;9.60;;;;;22.00;98798.00;;;;2063752;28;20222;-68
2024/02/22 01:33:47;;;;;;;13.97;9.70;;;;;22.00;98794.00;;;;2054054;28;20219;-68
2024/02/22 01:34:48;;;;;;;12.93;8.90;;;;;22.00;98774.00;;;;2054687;28;20215;-69
2024/02/22 01:35:49;;;;;;;15.37;10.00;;;;;22.00;98784.00;;;;2053295;28;20234;-68
2024/02/22 01:36:49;;;;;;;13.05;9.15;;;;;22.00;98780.00;;;;2062685;28;20222;-69
2024/02/22 01:37:50;;;;;;;13.03;8.90;;;;;22.00;98632.00;;;;2061517;28;20221;-68
2024/02/22 01:38:50;;;;;;;13.13;8.40;;;;;22.00;98384.00;;;;2061758;28;20199;-68
2024/02/22 01:39:50;;;;;;;14.27;9.10;;;;;22.10;98777.00;;;;2057271;28;20660;-69
2024/02/22 01:40:50;;;;;;;12.40;8.50;;;;;22.00;98719.00;;;;2053897;28;20595;-68
2024/02/22 01:41:51;;;;;;;12.60;8.83;;;;;22.00;98763.00;;;;2050384;28;20223;-70
2024/02/22 01:42:51;;;;;;;12.77;8.43;;;;;22.00;98775.00;;;;2054020;28;20282;-68
2024/02/22 01:43:52;;;;;;;12.07;8.60;;;;;22.00;98763.00;;;;2062915;28;20214;-68
2024/02/22 01:44:53;;;;;;;12.93;8.02;;;;;22.00;98769.00;;;;2063472;28;20211;-69
2024/02/22 01:45:53;;;;;;;12.27;7.97;;;;;22.00;98770.00;;;;2052985;28;20243;-69
2024/02/22 01:46:54;;;;;;;15.30;9.07;;;;;22.00;98669.00;;;;2062940;28;21282;-69
2024/02/22 01:47:54;;;;;;;14.23;8.93;;;;;22.00;98734.00;;;;2054087;28;20211;-68
2024/02/22 01:48:55;;;;;;;11.50;8.40;;;;;22.00;98759.00;;;;2046460;28;20461;-68
2024/02/22 01:49:55;;;;;;;12.63;8.37;;;;;22.00;98638.00;;;;2046381;28;20711;-68
2024/02/22 01:50:56;;;;;;;12.37;8.70;;;;;22.00;98667.00;;;;2044219;28;20215;-68
2024/02/22 01:51:58;;;;;;;12.07;8.47;;;;;22.00;98749.00;;;;2039049;29;20205;-72
2024/02/22 01:52:58;;;;;;;12.52;8.20;;;;;22.00;98736.00;;;;2041691;28;20221;-68
2024/02/22 01:53:59;;;;;;;12.80;8.30;;;;;22.00;98744.00;;;;2054239;28;20275;-68
2024/02/22 01:54:59;;;;;;;10.40;7.90;;;;;22.00;98742.00;;;;2054849;28;20254;-68
2024/02/22 01:56:00;;;;;;;12.20;7.90;;;;;22.00;98737.00;;;;2044434;28;20226;-68
2024/02/22 01:57:00;;;;;;;9.88;7.88;;;;;22.00;98735.00;;;;2046538;28;20666;-68
2024/02/22 01:58:01;;;;;;;10.43;7.07;;;;;22.00;98739.00;;;;2052988;28;20215;-68
2024/02/22 01:59:01;;;;;;;13.43;8.17;;;;;22.00;98743.00;;;;2049958;28;20303;-68
2024/02/22 02:00:04;;;;;;;12.10;8.30;;;;;22.00;98728.00;;;;2054729;28;20219;-68
2024/02/22 02:01:04;;;;;;;12.10;7.85;;;;;22.00;98739.00;;;;2050068;28;20242;-68
2024/02/22 02:02:05;;;;;;;13.17;7.77;;;;;22.00;98724.00;;;;2063502;28;20223;-68
2024/02/22 02:03:05;;;;;;;11.27;7.10;;;;;22.00;98724.00;;;;2062168;28;20256;-68
2024/02/22 02:04:06;;;;;;;11.17;8.20;;;;;22.00;98738.00;;;;2052172;28;20591;-68
2024/02/22 02:05:07;;;;;;;11.37;7.10;;;;;22.00;98729.00;;;;2052666;28;20696;-68
2024/02/22 02:06:07;;;;;;;9.53;6.90;;;;;22.00;98671.00;;;;2053634;28;20218;-68
2024/02/22 02:07:08;;;;;;;12.23;8.07;;;;;22.00;98727.00;;;;2063363;28;20544;-68
2024/02/22 02:08:08;;;;;;;10.80;6.67;;;;;22.00;98733.00;;;;2053370;28;20219;-68
2024/02/22 02:09:09;;;;;;;11.70;8.20;;;;;21.90;98717.00;;;;2054793;28;20252;-68
2024/02/22 02:10:09;;;;;;;12.10;7.50;;;;;22.00;98626.00;;;;2046231;28;20224;-68
2024/02/22 02:11:10;;;;;;;11.17;6.73;;;;;22.00;98723.00;;;;2029319;29;20287;-68
2024/02/22 02:12:10;;;;;;;10.90;7.37;;;;;21.90;98724.00;;;;2050279;28;20220;-68
2024/02/22 02:13:10;;;;;;;13.77;7.80;;;;;21.90;98727.00;;;;2062804;28;20242;-69
2024/02/22 02:14:11;;;;;;;10.70;6.50;;;;;21.90;98731.00;;;;2063336;28;20223;-68
2024/02/22 02:15:11;;;;;;;11.60;8.10;;;;;21.60;98516.00;;;;2059780;28;20268;-69
2024/02/22 02:16:11;;;;;;;10.03;6.77;;;;;21.90;98727.00;;;;2049027;28;20243;-68
2024/02/22 02:17:12;;;;;;;10.90;6.90;;;;;21.60;98714.00;;;;2045869;29;20228;-68
2024/02/22 02:18:12;;;;;;;8.60;6.60;;;;;21.90;98720.00;;;;2053522;28;20215;-68
2024/02/22 02:19:16;;;;;;;9.70;6.77;;;;;21.90;98716.00;;;;2054573;28;20223;-68
2024/02/22 02:20:17;;;;;;;8.85;6.50;;;;;21.90;98719.00;;;;2043584;28;20231;-68
2024/02/22 02:21:26;;;;;;;10.67;7.53;;;;;21.90;98682.00;;;;2063095;28;20761;-68
2024/02/22 02:22:45;;;;;;;10.80;6.88;;;;;21.90;98720.00;;;;2062180;28;20238;-68
2024/02/22 02:24:14;;;;;;;13.85;7.20;;;;;21.90;98705.00;;;;2055390;28;20219;-68
2024/02/22 02:25:14;;;;;;;11.95;6.60;;;;;21.90;98703.00;;;;2043957;28;20231;-68
2024/02/22 02:26:15;;;;;;;10.73;6.90;;;;;21.90;98718.00;;;;2048523;28;20222;-68
2024/02/22 02:27:16;;;;;;;8.57;5.90;;;;;21.90;98652.00;;;;2053536;28;20239;-69
2024/02/22 02:28:16;;;;;;;9.70;6.73;;;;;21.90;98704.00;;;;2051878;28;20459;-69
2024/02/22 02:29:17;;;;;;;10.07;6.73;;;;;21.90;98731.00;;;;2053083;28;20223;-69
2024/02/22 02:30:17;;;;;;;10.43;6.23;;;;;21.90;98712.00;;;;2050736;28;20227;-69
2024/02/22 02:31:18;;;;;;;9.73;5.70;;;;;21.90;98713.00;;;;2060680;28;20222;-68
2024/02/22 02:32:18;;;;;;;11.57;7.13;;;;;21.90;98710.00;;;;2062236;28;20243;-68
2024/02/22 02:33:18;;;;;;;10.13;6.40;;;;;21.90;98703.00;;;;2063150;28;20780;-68
2024/02/22 02:34:19;;;;;;;10.33;6.30;;;;;21.90;98700.00;;;;2062690;28;21387;-69
2024/02/22 02:35:19;;;;;;;10.80;6.20;;;;;21.80;98697.00;;;;2053212;28;20729;-68
2024/02/22 02:36:20;;;;;;;9.20;6.23;;;;;21.90;98711.00;;;;2060048;28;20219;-68
2024/02/22 02:37:20;;;;;;;8.63;6.67;;;;;21.90;98706.00;;;;2060373;28;20214;-68
2024/02/22 02:38:20;;;;;;;8.67;5.60;;;;;21.80;98702.00;;;;2060843;28;20238;-68
2024/02/22 02:39:21;;;;;;;8.60;5.93;;;;;21.90;98697.00;;;;2062290;28;20659;-68
2024/02/22 02:40:22;;;;;;;8.35;5.68;;;;;21.90;98694.00;;;;2053139;28;20321;-68
2024/02/22 02:41:22;;;;;;;9.47;6.40;;;;;21.90;98690.00;;;;2062441;28;20214;-69
2024/02/22 02:42:24;;;;;;;8.70;6.00;;;;;21.90;98692.00;;;;2056971;28;20626;-69
2024/02/22 02:43:24;;;;;;;7.88;5.28;;;;;21.90;98685.00;;;;2062947;28;20617;-68
2024/02/22 02:44:24;;;;;;;8.67;5.60;;;;;21.90;98680.00;;;;2053220;28;20254;-69
2024/02/22 02:45:25;;;;;;;11.47;6.40;;;;;21.90;98684.00;;;;2044719;28;20220;-68
2024/02/22 02:46:25;;;;;;;8.10;5.60;;;;;21.80;98682.00;;;;2062286;28;20215;-68
2024/02/22 02:47:26;;;;;;;8.67;5.40;;;;;21.80;98670.00;;;;2062529;28;20312;-68
2024/02/22 02:48:26;;;;;;;7.77;5.40;;;;;21.80;98673.00;;;;2061662;28;20220;-68
2024/02/22 02:49:27;;;;;;;8.33;5.50;;;;;21.80;98676.00;;;;2061630;28;20459;-68
2024/02/22 02:50:27;;;;;;;7.90;5.30;;;;;21.80;98675.00;;;;2053063;28;20253;-68
2024/02/22 02:51:28;;;;;;;7.73;5.10;;;;;21.80;98673.00;;;;2062175;28;20226;-68
2024/02/22 02:52:28;;;;;;;8.15;5.45;;;;;21.80;98671.00;;;;2062765;28;20234;-68
2024/02/22 02:53:29;;;;;;;7.60;4.93;;;;;21.80;98663.00;;;;2062454;28;20714;-68
2024/02/22 02:54:29;;;;;;;7.93;4.97;;;;;21.90;98663.00;;;;2063020;28;20223;-68
2024/02/22 02:55:29;;;;;;;7.90;5.20;;;;;21.80;98666.00;;;;2052027;28;20229;-68
2024/02/22 02:56:31;;;;;;;8.50;5.30;;;;;21.80;98668.00;;;;2063065;28;20211;-68
2024/02/22 02:57:32;;;;;;;7.55;5.05;;;;;21.90;98667.00;;;;2062733;28;20770;-68
2024/02/22 02:58:32;;;;;;;6.30;4.40;;;;;21.80;98656.00;;;;2061844;28;20215;-69
2024/02/22 02:59:32;;;;;;;7.53;5.00;;;;;21.80;98665.00;;;;2062994;28;20242;-68
2024/02/22 03:00:33;;;;;;;8.00;5.30;;;;;21.80;98661.00;;;;2051969;28;20246;-68
2024/02/22 03:01:34;;;;;;;9.10;5.60;;;;;21.80;98663.00;;;;2062110;28;20325;-68
2024/02/22 03:02:34;;;;;;;7.15;4.75;;;;;21.80;98658.00;;;;2062059;28;20226;-68
2024/02/22 03:03:34;;;;;;;8.93;5.50;;;;;21.80;98662.00;;;;2062086;28;20215;-68
2024/02/22 03:04:35;;;;;;;7.30;4.77;;;;;21.80;98663.00;;;;2062918;28;20279;-68
2024/02/22 03:05:37;;;;;;;6.67;4.43;;;;;21.80;98651.00;;;;2050593;28;20235;-68
2024/02/22 03:06:38;;;;;;;6.97;4.97;;;;;21.80;98655.00;;;;2062576;28;20218;-68
2024/02/22 03:07:38;;;;;;;8.20;4.63;;;;;21.80;98657.00;;;;2061823;28;20211;-68
2024/02/22 03:08:38;;;;;;;7.20;5.60;;;;;21.80;98651.00;;;;2062510;28;20226;-68
2024/02/22 03:09:39;;;;;;;7.40;4.73;;;;;21.80;98657.00;;;;2062719;28;20242;-68
2024/02/22 03:10:39;;;;;;;7.20;4.40;;;;;21.80;98646.00;;;;2051755;28;20293;-68
2024/02/22 03:11:39;;;;;;;6.70;4.17;;;;;21.80;98644.00;;;;2053742;28;20220;-68
2024/02/22 03:12:40;;;;;;;7.20;4.50;;;;;21.80;98641.00;;;;2053649;28;20322;-68
2024/02/22 03:13:40;;;;;;;6.27;4.50;;;;;21.80;98650.00;;;;2063046;28;20286;-68
2024/02/22 03:14:41;;;;;;;6.70;4.40;;;;;21.80;98644.00;;;;2062352;28;20222;-68
2024/02/22 03:15:41;;;;;;;8.47;4.83;;;;;21.80;98639.00;;;;2044581;28;20554;-68
2024/02/22 03:16:42;;;;;;;8.10;4.97;;;;;21.80;98641.00;;;;2061271;28;20742;-68
2024/02/22 03:17:42;;;;;;;8.47;4.90;;;;;21.80;98642.00;;;;2061877;28;20214;-68
2024/02/22 03:18:42;;;;;;;8.13;5.07;;;;;21.80;98641.00;;;;2062535;28;20215;-68
2024/02/22 03:19:43;;;;;;;6.67;4.23;;;;;21.80;98643.00;;;;2062251;28;20211;-68
2024/02/22 03:20:43;;;;;;;6.23;4.23;;;;;21.80;98630.00;;;;2052840;28;20219;-68
2024/02/22 03:21:43;;;;;;;5.40;3.80;;;;;21.80;98634.00;;;;2062816;28;20684;-68
2024/02/22 03:22:44;;;;;;;7.37;4.83;;;;;21.80;98636.00;;;;2052978;28;20259;-68
2024/02/22 03:23:44;;;;;;;7.40;4.17;;;;;21.80;98642.00;;;;2052913;28;20203;-68
2024/02/22 03:24:45;;;;;;;7.73;4.70;;;;;21.80;98627.00;;;;2061781;28;20221;-68
2024/02/22 03:25:45;;;;;;;5.95;3.75;;;;;21.80;98633.00;;;;2052784;28;20218;-68
2024/02/22 03:26:46;;;;;;;6.67;4.40;;;;;21.80;98645.00;;;;2061905;28;20269;-68
2024/02/22 03:27:49;;;;;;;6.07;3.90;;;;;21.80;98644.00;;;;2059980;28;20237;-68
2024/02/22 03:28:51;;;;;;;6.80;4.55;;;;;21.80;98639.00;;;;2055173;28;20259;-68
2024/02/22 03:29:51;;;;;;;6.18;3.90;;;;;21.80;98627.00;;;;2057275;28;20204;-69
2024/02/22 03:30:52;;;;;;;6.77;4.63;;;;;21.80;98629.00;;;;2053096;28;20211;-69
2024/02/22 03:31:52;;;;;;;6.60;4.30;;;;;21.80;98637.00;;;;2060359;28;20574;-69
2024/02/22 03:32:53;;;;;;;5.73;4.17;;;;;21.80;98631.00;;;;2062959;28;20211;-69
2024/02/22 03:33:54;;;;;;;5.90;3.87;;;;;21.80;98619.00;;;;2062932;28;20211;-69
2024/02/22 03:34:54;;;;;;;5.73;3.87;;;;;21.80;98644.00;;;;2062332;28;20458;-68
2024/02/22 03:35:55;;;;;;;7.47;4.37;;;;;21.70;98629.00;;;;2044379;28;20638;-69
2024/02/22 03:36:56;;;;;;;6.70;4.20;;;;;21.80;98631.00;;;;2053416;28;20703;-69
2024/02/22 03:37:57;;;;;;;6.10;3.33;;;;;21.80;98628.00;;;;2062162;28;20453;-68
2024/02/22 03:38:57;;;;;;;5.70;4.00;;;;;21.80;98632.00;;;;2062487;28;20237;-68
2024/02/22 03:39:57;;;;;;;5.37;3.60;;;;;21.70;98644.00;;;;2062353;28;20214;-68
2024/02/22 03:40:57;;;;;;;6.10;4.00;;;;;21.70;98627.00;;;;2053077;28;20588;-69
2024/02/22 03:41:58;;;;;;;6.03;3.80;;;;;21.70;98632.00;;;;2061848;28;20573;-69
2024/02/22 03:42:58;;;;;;;6.10;3.93;;;;;21.70;98644.00;;;;2061754;28;20618;-69
2024/02/22 03:43:59;;;;;;;5.07;3.40;;;;;21.70;98630.00;;;;2061678;28;20711;-69
2024/02/22 03:45:00;;;;;;;6.93;4.45;;;;;21.70;98627.00;;;;2062419;28;20758;-68
2024/02/22 03:46:00;;;;;;;6.13;3.70;;;;;21.80;98640.00;;;;2051713;28;20211;-68
2024/02/22 03:47:00;;;;;;;5.90;3.80;;;;;21.80;98629.00;;;;2062080;28;20238;-68
2024/02/22 03:48:01;;;;;;;5.40;3.67;;;;;21.70;98640.00;;;;2062020;28;20206;-68
2024/02/22 03:49:01;;;;;;;5.57;3.57;;;;;21.70;98630.00;;;;2062021;28;20258;-69
2024/02/22 03:50:03;;;;;;;5.57;3.60;;;;;21.40;98631.00;;;;2060103;28;20211;-68
2024/02/22 03:51:06;;;;;;;6.28;4.10;;;;;21.70;98629.00;;;;2050753;28;20238;-68
2024/02/22 03:52:07;;;;;;;6.53;4.20;;;;;21.70;98567.00;;;;2062366;28;20602;-68
2024/02/22 03:53:10;;;;;;;5.70;4.00;;;;;21.70;98628.00;;;;2053507;28;20302;-68
2024/02/22 03:54:10;;;;;;;5.10;3.08;;;;;21.70;98629.00;;;;2051954;28;20223;-68
2024/02/22 03:55:11;;;;;;;6.60;3.63;;;;;21.80;98625.00;;;;2060178;28;20207;-68
2024/02/22 03:56:11;;;;;;;5.50;3.37;;;;;21.70;98618.00;;;;2055182;28;20214;-68
2024/02/22 03:57:12;;;;;;;6.13;3.70;;;;;21.70;98628.00;;;;2062316;28;20214;-68
2024/02/22 03:58:12;;;;;;;5.07;3.03;;;;;21.70;98622.00;;;;2061631;28;20687;-68
2024/02/22 03:59:12;;;;;;;6.40;3.83;;;;;21.70;98627.00;;;;2062659;28;20218;-68
2024/02/22 04:00:14;;;;;;;5.00;3.47;;;;;21.70;98615.00;;;;2049064;28;20211;-69
2024/02/22 04:01:14;;;;;;;5.18;3.40;;;;;21.70;98620.00;;;;2061934;28;20206;-68
2024/02/22 04:02:14;;;;;;;5.20;3.60;;;;;21.70;98625.00;;;;2061124;28;20222;-71
2024/02/22 04:03:15;;;;;;;6.30;3.70;;;;;21.70;98626.00;;;;2062028;28;20273;-68
2024/02/22 04:04:15;;;;;;;5.33;3.20;;;;;21.70;98621.00;;;;2062718;28;20273;-68
2024/02/22 04:05:15;;;;;;;5.90;3.50;;;;;21.70;98612.00;;;;2052541;28;20231;-69
2024/02/22 04:06:16;;;;;;;5.23;3.20;;;;;21.70;98619.00;;;;2062711;28;20230;-68
2024/02/22 04:07:16;;;;;;;4.67;3.33;;;;;21.70;98635.00;;;;2062705;28;20250;-68
2024/02/22 04:08:16;;;;;;;4.60;3.07;;;;;21.70;98614.00;;;;2060027;28;20253;-68
2024/02/22 04:09:17;;;;;;;5.13;3.33;;;;;21.70;98617.00;;;;2062247;28;20219;-68
2024/02/22 04:10:17;;;;;;;5.40;3.00;;;;;21.70;98611.00;;;;2051475;28;20273;-68
2024/02/22 04:11:18;;;;;;;4.60;2.90;;;;;21.70;98615.00;;;;2062774;28;20249;-68
2024/02/22 04:12:18;;;;;;;6.33;3.47;;;;;21.70;97825.00;;;;2062338;28;20222;-68
2024/02/22 04:13:19;;;;;;;5.37;2.93;;;;;21.70;98616.00;;;;2059632;28;20310;-68
2024/02/22 04:14:19;;;;;;;5.23;3.00;;;;;21.70;98607.00;;;;2064272;28;20214;-68
2024/02/22 04:15:20;;;;;;;5.00;2.87;;;;;21.70;98610.00;;;;2053185;28;20894;-68
2024/02/22 04:16:21;;;;;;;6.18;3.80;;;;;21.70;98603.00;;;;2064250;28;20262;-68
2024/02/22 04:17:21;;;;;;;4.70;3.03;;;;;21.70;98598.00;;;;2063002;28;20617;-68
2024/02/22 04:18:21;;;;;;;5.23;3.07;;;;;21.70;98607.00;;;;2063573;28;20751;-68
2024/02/22 04:19:21;;;;;;;5.73;3.07;;;;;21.70;98600.00;;;;2064254;28;20849;-68
2024/02/22 04:20:22;;;;;;;4.50;2.97;;;;;21.70;98606.00;;;;2053416;28;20574;-68
2024/02/22 04:21:22;;;;;;;4.70;2.77;;;;;21.50;98606.00;;;;2063320;28;20701;-68
2024/02/22 04:22:24;;;;;;;4.23;2.73;;;;;21.70;98602.00;;;;2063305;28;20222;-68
2024/02/22 04:23:24;;;;;;;4.53;2.58;;;;;21.70;98600.00;;;;2055447;28;20227;-68
2024/02/22 04:24:24;;;;;;;4.33;2.37;;;;;21.70;98606.00;;;;2054593;28;20218;-68
2024/02/22 04:25:25;;;;;;;5.87;3.20;;;;;21.70;98601.00;;;;2053904;28;20215;-68
2024/02/22 04:26:25;;;;;;;4.10;2.60;;;;;21.70;98598.00;;;;2064059;28;20225;-68
2024/02/22 04:27:25;;;;;;;5.00;2.90;;;;;21.70;98592.00;;;;2063208;28;20222;-68
2024/02/22 04:28:26;;;;;;;5.67;2.97;;;;;21.70;98596.00;;;;2063371;28;20245;-68
2024/02/22 04:29:26;;;;;;;5.43;2.70;;;;;21.70;98591.00;;;;2063002;28;20218;-68
2024/02/22 04:30:26;;;;;;;4.23;2.53;;;;;21.70;98590.00;;;;2054302;28;20322;-68
2024/02/22 04:31:26;;;;;;;4.37;2.83;;;;;21.70;98589.00;;;;2064106;28;20623;-68
2024/02/22 04:32:27;;;;;;;4.13;2.90;;;;;21.70;98580.00;;;;2062723;28;20223;-68
2024/02/22 04:33:28;;;;;;;6.07;2.77;;;;;21.70;98581.00;;;;2063885;28;20256;-68
2024/02/22 04:34:28;;;;;;;4.45;2.58;;;;;21.70;98580.00;;;;2062949;28;20219;-69
2024/02/22 04:35:29;;;;;;;5.60;2.63;;;;;21.70;98581.00;;;;2054300;28;20707;-69
2024/02/22 04:36:29;;;;;;;4.67;2.60;;;;;21.70;98563.00;;;;2062582;28;20706;-68
2024/02/22 04:37:29;;;;;;;4.50;2.87;;;;;21.70;98579.00;;;;2062267;28;20226;-69
2024/02/22 04:38:30;;;;;;;3.97;2.43;;;;;21.70;98582.00;;;;2062750;28;20223;-68
2024/02/22 04:39:30;;;;;;;4.20;2.67;;;;;21.70;98577.00;;;;2063507;28;20231;-68
2024/02/22 04:40:30;;;;;;;4.50;2.67;;;;;21.70;98571.00;;;;2051179;28;20267;-69
2024/02/22 04:41:31;;;;;;;4.87;2.77;;;;;21.70;98573.00;;;;2063080;28;20215;-68
2024/02/22 04:42:31;;;;;;;4.80;2.73;;;;;21.60;98569.00;;;;2060613;28;20211;-69
2024/02/22 04:43:31;;;;;;;4.60;2.50;;;;;21.60;98578.00;;;;2063972;28;20215;-69
2024/02/22 04:44:32;;;;;;;4.00;2.50;;;;;21.60;98562.00;;;;2063153;28;20215;-68
2024/02/22 04:45:33;;;;;;;4.30;2.60;;;;;21.70;98572.00;;;;2053729;28;20241;-68
2024/02/22 04:46:35;;;;;;;4.05;2.28;;;;;21.60;98561.00;;;;2060742;28;20306;-69
2024/02/22 04:47:36;;;;;;;4.55;2.70;;;;;21.60;98570.00;;;;2061124;28;20214;-68
2024/02/22 04:48:37;;;;;;;4.70;2.45;;;;;21.60;98559.00;;;;2063052;28;20579;-68
2024/02/22 04:49:37;;;;;;;4.03;2.40;;;;;21.60;98559.00;;;;2063100;28;20225;-68
2024/02/22 04:50:38;;;;;;;4.23;2.23;;;;;21.60;98568.00;;;;2053832;28;20234;-68
2024/02/22 04:51:40;;;;;;;3.33;2.17;;;;;21.60;98552.00;;;;2063000;28;20225;-68
2024/02/22 04:52:40;;;;;;;4.20;2.92;;;;;21.60;98571.00;;;;2054723;28;20461;-68
2024/02/22 04:53:40;;;;;;;4.97;2.40;;;;;21.60;98563.00;;;;2054755;28;20220;-68
2024/02/22 04:54:41;;;;;;;3.47;2.17;;;;;21.60;98564.00;;;;2063734;28;20269;-68
2024/02/22 04:55:41;;;;;;;3.40;2.03;;;;;21.60;98557.00;;;;2054126;28;20222;-68
2024/02/22 04:56:41;;;;;;;3.10;2.13;;;;;21.60;98575.00;;;;2062688;28;20219;-68
2024/02/22 04:57:42;;;;;;;3.77;2.10;;;;;21.60;98552.00;;;;2063647;28;20211;-68
2024/02/22 04:58:42;;;;;;;3.50;2.23;;;;;21.60;98557.00;;;;2062506;28;20250;-68
2024/02/22 04:59:42;;;;;;;4.03;2.20;;;;;21.60;98561.00;;;;2063851;28;20207;-68
2024/02/22 05:00:44;;;;;;;3.83;2.13;;;;;21.60;98557.00;;;;2053617;28;20230;-68
2024/02/22 05:01:45;;;;;;;5.13;2.50;;;;;21.60;98556.00;;;;2062931;28;20211;-68